createdAt,value
2017-08-16T00:00:33.220Z,16.43
2017-08-16T00:03:01.188Z,15.77
2017-08-16T00:05:28.695Z,15.70
2017-08-16T00:07:56.271Z,16.10
2017-08-16T00:10:23.796Z,16.37
2017-08-16T00:12:51.325Z,25.00
2017-08-16T00:15:19.213Z,16.83
2017-08-16T00:17:46.747Z,16.73
2017-08-16T00:20:14.261Z,15.37
2017-08-16T00:22:41.810Z,16.03
2017-08-16T00:25:09.318Z,17.33
2017-08-16T00:27:36.846Z,14.80
2017-08-16T00:30:05.488Z,16.73
2017-08-16T00:32:33.429Z,16.33
2017-08-16T00:35:00.936Z,16.50
2017-08-16T00:37:28.500Z,15.23
2017-08-16T00:39:56.333Z,15.57
2017-08-16T00:42:23.859Z,16.27
2017-08-16T00:44:51.409Z,20.20
2017-08-16T00:47:18.964Z,18.20
2017-08-16T00:49:46.494Z,15.83
2017-08-16T00:52:14.056Z,17.03
2017-08-16T00:54:41.579Z,16.20
2017-08-16T00:57:09.142Z,16.17
2017-08-16T00:59:36.695Z,15.87
2017-08-16T01:02:04.281Z,16.37
2017-08-16T01:04:31.790Z,17.00
2017-08-16T01:06:59.313Z,16.90
2017-08-16T01:09:27.139Z,15.60
2017-08-16T01:11:54.667Z,17.53
2017-08-16T01:14:22.189Z,16.73
2017-08-16T01:16:49.721Z,17.33
2017-08-16T01:19:17.239Z,16.97
2017-08-16T01:21:44.760Z,15.80
2017-08-16T01:24:12.297Z,15.87
2017-08-16T01:26:39.819Z,16.03
2017-08-16T01:29:07.352Z,17.97
2017-08-16T01:31:34.912Z,17.30
2017-08-16T01:34:02.645Z,17.77
2017-08-16T01:36:30.183Z,16.20
2017-08-16T01:38:57.778Z,17.33
2017-08-16T01:41:25.332Z,17.50
2017-08-16T01:43:52.856Z,16.13
2017-08-16T01:46:20.401Z,18.97
2017-08-16T01:48:48.145Z,16.67
2017-08-16T01:51:15.642Z,17.53
2017-08-16T01:53:43.206Z,18.27
2017-08-16T01:56:10.723Z,17.67
2017-08-16T01:58:38.226Z,17.97
2017-08-16T02:01:05.865Z,18.10
2017-08-16T02:03:33.393Z,20.13
2017-08-16T02:06:00.922Z,20.30
2017-08-16T02:08:28.476Z,18.20
2017-08-16T02:10:56.369Z,18.30
2017-08-16T02:13:23.894Z,18.50
2017-08-16T02:18:24.556Z,19.23
2017-08-16T02:20:52.108Z,19.20
2017-08-16T02:23:19.631Z,18.20
2017-08-16T02:25:47.187Z,27.13
2017-08-16T02:28:14.951Z,20.93
2017-08-16T02:30:42.504Z,22.27
2017-08-16T02:33:10.024Z,18.73
2017-08-16T02:35:37.529Z,17.77
2017-08-16T02:38:05.083Z,18.90
2017-08-16T02:40:32.589Z,19.00
2017-08-16T02:43:00.107Z,19.80
2017-08-16T02:45:27.674Z,19.67
2017-08-16T02:47:55.179Z,21.07
2017-08-16T02:50:22.689Z,24.00
2017-08-16T02:52:50.277Z,19.70
2017-08-16T02:55:17.839Z,22.47
2017-08-16T02:57:45.374Z,18.63
2017-08-16T03:00:13.012Z,19.47
2017-08-16T03:02:40.561Z,17.90
2017-08-16T03:05:08.310Z,17.53
2017-08-16T03:07:35.933Z,20.40
2017-08-16T03:10:03.512Z,18.53
2017-08-16T03:12:31.050Z,17.30
2017-08-16T03:14:58.638Z,18.60
2017-08-16T03:17:26.175Z,20.83
2017-08-16T03:19:53.735Z,22.90
2017-08-16T03:22:21.645Z,22.87
2017-08-16T03:24:49.203Z,24.40
2017-08-16T03:27:16.737Z,22.60
2017-08-16T03:29:44.298Z,23.60
2017-08-16T03:32:11.906Z,23.73
2017-08-16T03:34:39.427Z,25.07
2017-08-16T03:37:06.987Z,26.77
2017-08-16T03:39:34.574Z,25.40
2017-08-16T03:42:02.448Z,25.67
2017-08-16T03:44:29.992Z,24.20
2017-08-16T03:46:57.544Z,26.27
2017-08-16T03:49:25.091Z,24.77
2017-08-16T03:51:52.651Z,27.40
2017-08-16T03:54:20.240Z,25.43
2017-08-16T03:56:47.799Z,23.30
2017-08-16T03:59:15.354Z,26.70
2017-08-16T04:01:42.926Z,24.93
2017-08-16T04:04:10.472Z,24.13
2017-08-16T04:06:38.330Z,25.93
2017-08-16T04:09:05.898Z,26.30
2017-08-16T04:11:33.433Z,29.60
2017-08-16T04:14:01.008Z,25.07
2017-08-16T04:16:28.590Z,24.90
2017-08-16T04:18:56.147Z,30.67
2017-08-16T04:21:23.694Z,26.23
2017-08-16T04:23:51.244Z,23.20
2017-08-16T04:26:18.798Z,24.20
2017-08-16T04:28:46.335Z,26.60
2017-08-16T04:31:13.945Z,22.97
2017-08-16T04:33:41.540Z,31.67
2017-08-16T04:36:09.093Z,25.37
2017-08-16T04:38:36.997Z,24.67
2017-08-16T04:41:04.774Z,30.20
2017-08-16T04:43:32.375Z,27.93
2017-08-16T04:45:59.982Z,21.40
2017-08-16T04:48:27.510Z,22.97
2017-08-16T04:50:55.099Z,37.00
2017-08-16T04:53:23.012Z,24.27
2017-08-16T04:55:50.564Z,25.63
2017-08-16T04:58:18.146Z,28.30
2017-08-16T05:00:45.783Z,32.20
2017-08-16T05:03:13.329Z,28.10
2017-08-16T05:05:40.874Z,24.10
2017-08-16T05:08:08.455Z,21.03
2017-08-16T05:10:36.277Z,27.03
2017-08-16T05:13:03.839Z,30.93
2017-08-16T05:15:31.399Z,36.03
2017-08-16T05:17:58.944Z,33.40
2017-08-16T05:20:26.567Z,43.30
2017-08-16T05:22:54.152Z,33.93
2017-08-16T05:25:21.954Z,26.80
2017-08-16T05:27:49.524Z,25.10
2017-08-16T05:30:17.096Z,28.23
2017-08-16T05:32:44.696Z,24.73
2017-08-16T05:35:12.259Z,23.40
2017-08-16T05:37:40.078Z,26.20
2017-08-16T05:40:07.641Z,24.63
2017-08-16T05:42:35.172Z,20.03
2017-08-16T05:45:03.072Z,34.07
2017-08-16T05:47:30.817Z,25.30
2017-08-16T05:49:58.349Z,32.03
2017-08-16T05:52:25.892Z,32.10
2017-08-16T05:54:53.715Z,34.73
2017-08-16T05:57:21.237Z,26.90
2017-08-16T05:59:48.773Z,41.50
2017-08-16T06:02:16.373Z,28.47
2017-08-16T06:04:43.874Z,25.80
2017-08-16T06:07:11.376Z,20.37
2017-08-16T06:09:39.348Z,21.23
2017-08-16T06:12:06.867Z,22.83
2017-08-16T06:14:34.401Z,23.13
2017-08-16T06:17:02.279Z,21.13
2017-08-16T06:19:29.818Z,27.17
2017-08-16T06:21:57.555Z,22.07
2017-08-16T06:24:25.106Z,19.53
2017-08-16T06:26:52.917Z,19.23
2017-08-16T06:29:20.434Z,18.40
2017-08-16T06:31:48.213Z,20.70
2017-08-16T06:34:15.731Z,19.67
2017-08-16T06:36:43.465Z,26.50
2017-08-16T06:39:11.015Z,24.03
2017-08-16T06:41:38.548Z,18.67
2017-08-16T06:44:06.073Z,21.60
2017-08-16T06:46:33.656Z,18.50
2017-08-16T06:49:01.179Z,22.47
2017-08-16T06:51:28.937Z,17.10
2017-08-16T06:53:56.519Z,17.67
2017-08-16T06:56:24.346Z,16.47
2017-08-16T06:58:51.848Z,26.00
2017-08-16T07:01:19.405Z,14.37
2017-08-16T07:03:46.921Z,14.23
2017-08-16T07:06:14.479Z,15.17
2017-08-16T07:08:42.028Z,13.97
2017-08-16T07:11:09.902Z,14.47
2017-08-16T07:13:37.409Z,14.73
2017-08-16T07:16:04.964Z,17.80
2017-08-16T07:18:32.476Z,15.43
2017-08-16T07:21:00.228Z,13.50
2017-08-16T07:23:27.796Z,11.77
2017-08-16T07:25:55.305Z,10.93
2017-08-16T07:28:22.814Z,12.50
2017-08-16T07:30:50.407Z,11.80
2017-08-16T07:33:18.254Z,13.33
2017-08-16T07:35:45.771Z,12.83
2017-08-16T07:38:13.361Z,11.33
2017-08-16T07:40:40.879Z,11.30
2017-08-16T07:43:08.397Z,11.30
2017-08-16T07:45:35.947Z,10.57
2017-08-16T07:48:03.450Z,11.90
2017-08-16T07:50:31.210Z,10.93
2017-08-16T07:52:58.771Z,12.20
2017-08-16T07:55:26.585Z,11.20
2017-08-16T07:57:54.093Z,11.13
2017-08-16T08:00:21.732Z,11.23
2017-08-16T08:02:49.263Z,15.40
2017-08-16T08:05:17.047Z,11.97
2017-08-16T08:07:44.583Z,16.97
2017-08-16T08:10:12.089Z,10.53
2017-08-16T08:12:39.585Z,10.80
2017-08-16T08:15:07.136Z,11.07
2017-08-16T08:17:34.889Z,11.40
2017-08-16T08:20:02.451Z,11.53
2017-08-16T08:22:30.024Z,13.13
2017-08-16T08:24:57.549Z,11.77
2017-08-16T08:27:25.153Z,10.70
2017-08-16T08:29:52.944Z,13.50
2017-08-16T08:32:20.551Z,17.80
2017-08-16T08:34:48.101Z,13.90
2017-08-16T08:37:15.627Z,12.40
2017-08-16T08:39:43.174Z,12.20
2017-08-16T08:42:10.955Z,21.70
2017-08-16T08:44:38.460Z,11.60
2017-08-16T08:47:05.997Z,16.57
2017-08-16T08:49:33.523Z,12.00
2017-08-16T08:52:01.029Z,12.87
2017-08-16T08:54:28.603Z,11.70
2017-08-16T08:56:56.119Z,13.43
2017-08-16T08:59:24.373Z,13.33
2017-08-16T09:01:51.951Z,11.33
2017-08-16T09:04:19.503Z,17.10
2017-08-16T09:06:47.025Z,11.17
2017-08-16T09:09:15.484Z,9.47
2017-08-16T09:11:42.993Z,10.73
2017-08-16T09:14:10.751Z,11.20
2017-08-16T09:16:38.794Z,10.03
2017-08-16T09:19:06.609Z,10.63
2017-08-16T09:21:34.138Z,10.77
2017-08-16T09:24:01.700Z,11.53
2017-08-16T09:26:29.244Z,8.87
2017-08-16T09:28:56.815Z,10.13
2017-08-16T09:31:24.360Z,12.53
2017-08-16T09:33:52.473Z,9.83
2017-08-16T09:36:20.027Z,12.10
2017-08-16T09:38:47.584Z,11.23
2017-08-16T09:41:15.419Z,10.13
2017-08-16T09:43:42.922Z,9.10
2017-08-16T09:46:10.509Z,15.93
2017-08-16T09:48:38.013Z,10.00
2017-08-16T09:51:05.554Z,11.20
2017-08-16T09:53:33.633Z,9.50
2017-08-16T09:56:01.221Z,9.50
2017-08-16T09:58:28.740Z,14.00
2017-08-16T10:00:56.286Z,8.03
2017-08-16T10:03:23.781Z,8.07
2017-08-16T10:05:51.291Z,8.50
2017-08-16T10:08:18.876Z,12.70
2017-08-16T10:10:46.383Z,8.50
2017-08-16T10:13:14.132Z,10.73
2017-08-16T10:15:41.671Z,9.40
2017-08-16T10:18:09.559Z,9.73
2017-08-16T10:20:37.079Z,9.23
2017-08-16T10:23:04.655Z,8.80
2017-08-16T10:25:32.151Z,8.57
2017-08-16T10:27:59.658Z,8.97
2017-08-16T10:30:28.150Z,10.37
2017-08-16T10:32:55.653Z,8.57
2017-08-16T10:35:23.184Z,9.80
2017-08-16T10:37:50.742Z,7.50
2017-08-16T10:40:18.242Z,7.90
2017-08-16T10:42:45.775Z,11.23
2017-08-16T10:45:13.324Z,7.33
2017-08-16T10:47:40.850Z,8.17
2017-08-16T10:50:08.362Z,7.30
2017-08-16T10:52:35.985Z,8.47
2017-08-16T10:55:03.501Z,9.33
2017-08-16T10:57:31.309Z,7.53
2017-08-16T10:59:58.859Z,8.20
2017-08-16T11:02:26.626Z,9.73
2017-08-16T11:04:54.162Z,9.63
2017-08-16T11:07:21.727Z,8.63
2017-08-16T11:09:49.275Z,11.60
2017-08-16T11:12:16.786Z,7.87
2017-08-16T11:14:44.319Z,13.60
2017-08-16T11:17:11.897Z,7.13
2017-08-16T11:19:39.444Z,13.20
2017-08-16T11:22:07.190Z,9.23
2017-08-16T11:24:34.753Z,12.67
2017-08-16T11:27:02.358Z,7.93
2017-08-16T11:29:29.875Z,11.43
2017-08-16T11:31:57.405Z,12.73
2017-08-16T11:34:24.957Z,9.67
2017-08-16T11:36:52.455Z,9.70
2017-08-16T11:39:20.011Z,8.13
2017-08-16T11:41:47.536Z,7.97
2017-08-16T11:44:15.279Z,7.93
2017-08-16T11:46:43.069Z,8.03
2017-08-16T11:49:10.981Z,12.97
2017-08-16T11:51:39.017Z,9.13
2017-08-16T11:54:06.595Z,12.77
2017-08-16T11:56:34.386Z,9.47
2017-08-16T11:59:01.896Z,10.10
2017-08-16T12:01:29.455Z,11.20
2017-08-16T12:03:57.019Z,9.40
2017-08-16T12:06:25.267Z,9.60
2017-08-16T12:08:52.831Z,13.37
2017-08-16T12:11:20.341Z,14.23
2017-08-16T12:13:47.853Z,9.13
2017-08-16T12:16:15.390Z,7.20
2017-08-16T12:18:42.885Z,8.07
2017-08-16T12:21:10.673Z,12.80
2017-08-16T12:23:38.240Z,11.30
2017-08-16T12:26:05.769Z,9.13
2017-08-16T12:28:33.327Z,9.50
2017-08-16T12:31:00.875Z,7.80
2017-08-16T12:33:28.372Z,7.83
2017-08-16T12:35:55.887Z,7.77
2017-08-16T12:38:23.449Z,8.23
2017-08-16T12:40:50.969Z,16.60
2017-08-16T12:43:18.511Z,6.33
2017-08-16T12:45:46.072Z,11.13
2017-08-16T12:48:13.593Z,17.87
2017-08-16T12:50:41.336Z,12.43
2017-08-16T12:53:08.874Z,10.30
2017-08-16T12:55:36.435Z,13.37
2017-08-16T12:58:03.940Z,16.83
2017-08-16T13:00:31.500Z,11.83
2017-08-16T13:02:59.046Z,9.57
2017-08-16T13:05:26.610Z,10.20
2017-08-16T13:07:54.159Z,10.03
2017-08-16T13:10:21.914Z,11.27
2017-08-16T13:12:49.468Z,8.43
2017-08-16T13:15:17.034Z,7.47
2017-08-16T13:17:44.617Z,9.90
2017-08-16T13:20:12.130Z,8.87
2017-08-16T13:22:39.685Z,10.90
2017-08-16T13:25:07.204Z,8.47
2017-08-16T13:27:34.972Z,7.37
2017-08-16T13:30:06.417Z,7.63
2017-08-16T13:32:33.946Z,8.20
2017-08-16T13:35:01.453Z,11.63
2017-08-16T13:37:29.034Z,8.70
2017-08-16T13:39:56.568Z,7.57
2017-08-16T13:42:24.078Z,7.40
2017-08-16T13:44:51.635Z,8.97
2017-08-16T13:47:19.152Z,9.60
2017-08-16T13:49:46.671Z,8.50
2017-08-16T13:52:14.212Z,6.33
2017-08-16T13:54:41.718Z,8.63
2017-08-16T13:57:09.241Z,6.83
2017-08-16T13:59:36.823Z,11.30
2017-08-16T14:02:04.385Z,7.53
2017-08-16T14:04:32.938Z,7.53
2017-08-16T14:07:00.440Z,9.00
2017-08-16T14:09:27.993Z,9.13
2017-08-16T14:11:55.547Z,7.33
2017-08-16T14:14:23.064Z,7.30
2017-08-16T14:16:50.829Z,5.60
2017-08-16T14:19:18.372Z,10.97
2017-08-16T14:21:46.862Z,8.40
2017-08-16T14:24:14.409Z,7.67
2017-08-16T14:26:41.939Z,10.73
2017-08-16T14:29:09.447Z,9.80
2017-08-16T14:31:36.982Z,10.23
2017-08-16T14:34:04.515Z,13.43
2017-08-16T14:36:32.041Z,13.33
2017-08-16T14:38:59.913Z,12.93
2017-08-16T14:41:27.440Z,21.37
2017-08-16T14:43:54.977Z,7.73
2017-08-16T14:46:22.515Z,7.50
2017-08-16T14:48:50.021Z,9.53
2017-08-16T14:51:17.760Z,12.07
2017-08-16T14:53:45.314Z,7.60
2017-08-16T14:56:13.121Z,9.77
2017-08-16T14:58:40.636Z,7.60
2017-08-16T15:01:08.420Z,7.30
2017-08-16T15:03:35.946Z,9.20
2017-08-16T15:06:03.466Z,7.03
2017-08-16T15:08:31.033Z,7.77
2017-08-16T15:10:58.612Z,8.70
2017-08-16T15:13:26.114Z,7.80
2017-08-16T15:15:53.668Z,7.60
2017-08-16T15:18:21.237Z,7.50
2017-08-16T15:20:49.016Z,7.03
2017-08-16T15:23:16.567Z,9.87
2017-08-16T15:25:44.836Z,9.00
2017-08-16T15:28:12.359Z,7.40
2017-08-16T15:30:39.911Z,9.27
2017-08-16T15:33:07.438Z,9.30
2017-08-16T15:35:35.184Z,12.97
2017-08-16T15:38:02.812Z,10.03
2017-08-16T15:40:30.345Z,6.90
2017-08-16T15:42:57.852Z,7.97
2017-08-16T15:45:25.414Z,11.10
2017-08-16T15:47:54.106Z,11.10
2017-08-16T15:50:21.636Z,8.13
2017-08-16T15:52:49.239Z,11.23
2017-08-16T15:55:16.766Z,9.43
2017-08-16T15:57:44.295Z,8.83
2017-08-16T16:00:11.953Z,18.83
2017-08-16T16:02:39.473Z,9.73
2017-08-16T16:05:07.266Z,12.77
2017-08-16T16:07:34.818Z,14.47
2017-08-16T16:10:02.435Z,23.40
2017-08-16T16:12:30.019Z,10.00
2017-08-16T16:14:57.579Z,10.17
2017-08-16T16:17:25.109Z,10.87
2017-08-16T16:19:52.708Z,11.50
2017-08-16T16:22:20.304Z,19.13
2017-08-16T16:24:47.825Z,14.07
2017-08-16T16:27:15.351Z,10.70
2017-08-16T16:29:42.909Z,12.43
2017-08-16T16:32:10.761Z,9.83
2017-08-16T16:34:39.292Z,17.10
2017-08-16T16:37:06.808Z,13.17
2017-08-16T16:39:34.344Z,15.40
2017-08-16T16:42:01.873Z,12.80
2017-08-16T16:44:29.386Z,13.27
2017-08-16T16:46:56.946Z,12.70
2017-08-16T16:49:24.471Z,12.13
2017-08-16T16:51:52.076Z,11.70
2017-08-16T16:54:19.624Z,35.93
2017-08-16T16:56:48.135Z,12.60
2017-08-16T16:59:15.741Z,13.87
2017-08-16T17:01:43.305Z,12.80
2017-08-16T17:04:10.829Z,9.10
2017-08-16T17:06:38.342Z,11.00
2017-08-16T17:09:05.916Z,9.53
2017-08-16T17:11:33.440Z,12.17
2017-08-16T17:14:00.955Z,8.77
2017-08-16T17:16:28.768Z,9.40
2017-08-16T17:18:56.287Z,12.53
2017-08-16T17:21:24.076Z,10.90
2017-08-16T17:23:51.634Z,12.40
2017-08-16T17:26:19.137Z,10.90
2017-08-16T17:28:46.695Z,9.27
2017-08-16T17:31:14.302Z,18.83
2017-08-16T17:33:41.867Z,18.87
2017-08-16T17:36:09.642Z,11.93
2017-08-16T17:38:37.961Z,11.43
2017-08-16T17:41:05.479Z,15.50
2017-08-16T17:43:32.994Z,10.97
2017-08-16T17:46:00.556Z,12.90
2017-08-16T17:48:28.063Z,17.23
2017-08-16T17:50:55.635Z,12.73
2017-08-16T17:53:23.215Z,14.07
2017-08-16T17:55:50.960Z,10.47
2017-08-16T17:58:18.461Z,10.70
2017-08-16T18:00:46.101Z,14.67
2017-08-16T18:03:13.864Z,11.80
2017-08-16T18:05:41.398Z,10.90
2017-08-16T18:08:08.934Z,12.97
2017-08-16T18:10:36.802Z,15.10
2017-08-16T18:13:04.336Z,11.60
2017-08-16T18:15:31.892Z,12.13
2017-08-16T18:17:59.410Z,14.43
2017-08-16T18:20:26.952Z,9.30
2017-08-16T18:22:54.538Z,11.03
2017-08-16T18:25:22.325Z,9.20
2017-08-16T18:27:50.124Z,11.87
2017-08-16T18:30:17.704Z,16.83
2017-08-16T18:32:45.223Z,10.67
2017-08-16T18:35:13.489Z,11.67
2017-08-16T18:37:41.068Z,10.33
2017-08-16T18:40:08.601Z,13.37
2017-08-16T18:42:36.480Z,11.07
2017-08-16T18:45:04.057Z,10.63
2017-08-16T18:47:31.628Z,10.70
2017-08-16T18:49:59.357Z,11.83
2017-08-16T18:52:27.013Z,9.70
2017-08-16T18:54:54.670Z,8.93
2017-08-16T18:57:22.415Z,12.53
2017-08-16T18:59:50.395Z,11.00
2017-08-16T19:02:18.966Z,10.90
2017-08-16T19:04:46.700Z,15.50
2017-08-16T19:07:14.522Z,8.83
2017-08-16T19:09:42.546Z,12.13
2017-08-16T19:12:10.385Z,12.60
2017-08-16T19:14:38.272Z,11.30
2017-08-16T19:17:06.167Z,9.93
2017-08-16T19:19:34.126Z,9.93
2017-08-16T19:22:02.074Z,9.30
2017-08-16T19:24:29.996Z,14.03
2017-08-16T19:26:57.837Z,10.13
2017-08-16T19:29:25.801Z,11.13
2017-08-16T19:31:54.587Z,11.13
2017-08-16T19:34:23.315Z,11.43
2017-08-16T19:36:51.068Z,12.53
2017-08-16T19:39:19.016Z,14.07
2017-08-16T19:41:46.916Z,10.10
2017-08-16T19:44:14.736Z,9.50
2017-08-16T19:46:42.645Z,16.13
2017-08-16T19:49:10.526Z,17.93
2017-08-16T19:51:38.229Z,14.00
2017-08-16T19:54:05.902Z,13.47
2017-08-16T19:56:33.646Z,14.73
2017-08-16T19:59:01.330Z,10.30
2017-08-16T20:01:28.908Z,11.93
2017-08-16T20:03:56.761Z,9.60
2017-08-16T20:06:24.292Z,13.33
2017-08-16T20:08:51.905Z,12.90
2017-08-16T20:11:19.568Z,14.37
2017-08-16T20:13:47.531Z,14.27
2017-08-16T20:16:15.097Z,12.57
2017-08-16T20:18:42.617Z,20.93
2017-08-16T20:21:10.299Z,25.50
2017-08-16T20:23:37.936Z,18.73
2017-08-16T20:26:05.447Z,13.03
2017-08-16T20:28:33.204Z,11.37
2017-08-16T20:31:01.776Z,14.37
2017-08-16T20:33:29.279Z,16.50
2017-08-16T20:35:57.120Z,14.90
2017-08-16T20:38:24.662Z,17.83
2017-08-16T20:40:52.174Z,16.83
2017-08-16T20:43:19.684Z,15.77
2017-08-16T20:45:47.225Z,15.63
2017-08-16T20:48:14.754Z,14.83
2017-08-16T20:50:42.530Z,20.10
2017-08-16T20:53:10.086Z,17.80
2017-08-16T20:55:37.926Z,13.73
2017-08-16T20:58:05.696Z,15.33
2017-08-16T21:00:33.396Z,12.87
2017-08-16T21:03:00.953Z,13.30
2017-08-16T21:05:28.467Z,11.50
2017-08-16T21:07:56.067Z,13.73
2017-08-16T21:10:23.593Z,15.07
2017-08-16T21:12:51.125Z,13.70
2017-08-16T21:15:18.696Z,12.50
2017-08-16T21:17:46.216Z,12.47
2017-08-16T21:20:13.755Z,15.40
2017-08-16T21:22:42.286Z,12.77
2017-08-16T21:25:09.856Z,13.33
2017-08-16T21:27:37.429Z,14.00
2017-08-16T21:30:10.334Z,12.47
2017-08-16T21:32:37.873Z,13.83
2017-08-16T21:35:05.388Z,14.93
2017-08-16T21:37:32.993Z,12.57
2017-08-16T21:40:00.513Z,13.20
2017-08-16T21:42:28.052Z,15.87
2017-08-16T21:44:55.646Z,15.37
2017-08-16T21:47:23.219Z,14.90
2017-08-16T21:49:50.765Z,12.53
2017-08-16T21:52:18.335Z,20.73
2017-08-16T21:54:45.899Z,23.67
2017-08-16T21:57:13.419Z,14.87
2017-08-16T21:59:40.953Z,14.20
2017-08-16T22:02:08.569Z,15.73
2017-08-16T22:04:36.121Z,14.60
2017-08-16T22:07:03.645Z,21.00
2017-08-16T22:09:31.211Z,21.13
2017-08-16T22:11:58.735Z,14.73
2017-08-16T22:14:26.261Z,17.17
2017-08-16T22:16:53.826Z,14.90
2017-08-16T22:19:22.451Z,15.50
2017-08-16T22:21:50.005Z,14.30
2017-08-16T22:24:17.569Z,14.43
2017-08-16T22:26:45.095Z,18.40
2017-08-16T22:29:12.867Z,16.53
2017-08-16T22:31:40.433Z,12.77
2017-08-16T22:34:07.942Z,15.43
2017-08-16T22:36:35.713Z,13.40
2017-08-16T22:39:03.284Z,15.73
2017-08-16T22:41:30.803Z,15.40
2017-08-16T22:43:58.335Z,14.53
2017-08-16T22:46:26.024Z,15.30
2017-08-16T22:48:53.563Z,16.30
2017-08-16T22:51:21.081Z,16.67
2017-08-16T22:53:48.631Z,17.10
2017-08-16T22:56:16.143Z,19.00
2017-08-16T22:58:43.675Z,15.33
2017-08-16T23:01:11.268Z,17.77
2017-08-16T23:03:38.829Z,17.50
2017-08-16T23:06:06.459Z,18.60
2017-08-16T23:08:33.996Z,15.63
2017-08-16T23:11:01.607Z,15.27
2017-08-16T23:13:29.137Z,20.83
2017-08-16T23:15:56.676Z,14.07
2017-08-16T23:18:24.218Z,16.07
2017-08-16T23:20:51.801Z,15.33
2017-08-16T23:23:19.371Z,17.00
2017-08-16T23:25:46.900Z,15.37
2017-08-16T23:28:14.431Z,14.90
2017-08-16T23:30:42.009Z,16.50
2017-08-16T23:33:09.811Z,19.93
2017-08-16T23:35:37.329Z,16.70
2017-08-16T23:38:04.939Z,17.90
2017-08-16T23:40:32.467Z,19.10
2017-08-16T23:43:00.023Z,16.17
2017-08-16T23:45:27.581Z,17.33
2017-08-16T23:47:55.102Z,19.53
2017-08-16T23:50:22.898Z,17.80
2017-08-16T23:52:50.448Z,17.10
2017-08-16T23:55:18.200Z,21.77
2017-08-16T23:57:45.706Z,16.33
